sensor_id;sensor_type;location;lat;lon;timestamp;P1;durP1;ratioP1;P2;durP2;ratioP2
45848;SDS011;31567;54.600;9.842;2024-02-21T00:02:21;41.10;;;10.57;;
45848;SDS011;31567;54.600;9.842;2024-02-21T00:06:00;43.10;;;11.32;;
45848;SDS011;31567;54.600;9.842;2024-02-21T00:09:40;44.67;;;10.48;;
45848;SDS011;31567;54.600;9.842;2024-02-21T00:13:19;32.85;;;10.57;;
45848;SDS011;31567;54.600;9.842;2024-02-21T00:16:59;44.88;;;10.45;;
45848;SDS011;31567;54.600;9.842;2024-02-21T00:20:39;36.83;;;10.00;;
45848;SDS011;31567;54.600;9.842;2024-02-21T00:24:18;35.83;;;9.45;;
45848;SDS011;31567;54.600;9.842;2024-02-21T00:27:58;28.55;;;8.32;;
45848;SDS011;31567;54.600;9.842;2024-02-21T00:31:37;38.78;;;9.48;;
45848;SDS011;31567;54.600;9.842;2024-02-21T00:35:17;35.17;;;9.73;;
45848;SDS011;31567;54.600;9.842;2024-02-21T00:38:56;24.58;;;7.43;;
45848;SDS011;31567;54.600;9.842;2024-02-21T00:42:36;32.65;;;9.05;;
45848;SDS011;31567;54.600;9.842;2024-02-21T00:46:16;24.77;;;7.55;;
45848;SDS011;31567;54.600;9.842;2024-02-21T00:49:55;24.25;;;7.40;;
45848;SDS011;31567;54.600;9.842;2024-02-21T00:53:35;22.73;;;6.50;;
45848;SDS011;31567;54.600;9.842;2024-02-21T00:57:17;24.58;;;7.18;;
45848;SDS011;31567;54.600;9.842;2024-02-21T01:00:56;27.92;;;8.70;;
45848;SDS011;31567;54.600;9.842;2024-02-21T01:04:36;24.58;;;7.95;;
45848;SDS011;31567;54.600;9.842;2024-02-21T01:08:15;23.95;;;7.85;;
45848;SDS011;31567;54.600;9.842;2024-02-21T01:11:55;21.70;;;7.20;;
45848;SDS011;31567;54.600;9.842;2024-02-21T01:15:34;27.83;;;8.18;;
45848;SDS011;31567;54.600;9.842;2024-02-21T01:19:14;22.73;;;6.43;;
45848;SDS011;31567;54.600;9.842;2024-02-21T01:22:53;22.55;;;6.88;;
45848;SDS011;31567;54.600;9.842;2024-02-21T01:26:33;20.88;;;6.60;;
45848;SDS011;31567;54.600;9.842;2024-02-21T01:30:13;21.05;;;6.30;;
45848;SDS011;31567;54.600;9.842;2024-02-21T01:33:52;19.90;;;6.60;;
45848;SDS011;31567;54.600;9.842;2024-02-21T01:37:32;15.75;;;6.57;;
45848;SDS011;31567;54.600;9.842;2024-02-21T01:41:11;14.98;;;5.30;;
45848;SDS011;31567;54.600;9.842;2024-02-21T01:44:51;11.48;;;5.47;;
45848;SDS011;31567;54.600;9.842;2024-02-21T01:48:30;10.30;;;4.63;;
45848;SDS011;31567;54.600;9.842;2024-02-21T01:52:10;14.13;;;5.05;;
45848;SDS011;31567;54.600;9.842;2024-02-21T01:55:53;12.32;;;4.13;;
45848;SDS011;31567;54.600;9.842;2024-02-21T01:59:32;13.35;;;5.80;;
45848;SDS011;31567;54.600;9.842;2024-02-21T02:03:12;9.38;;;4.15;;
45848;SDS011;31567;54.600;9.842;2024-02-21T02:06:59;13.17;;;5.77;;
45848;SDS011;31567;54.600;9.842;2024-02-21T02:10:42;9.57;;;4.88;;
45848;SDS011;31567;54.600;9.842;2024-02-21T02:14:22;10.32;;;5.00;;
45848;SDS011;31567;54.600;9.842;2024-02-21T02:18:02;12.77;;;4.63;;
45848;SDS011;31567;54.600;9.842;2024-02-21T02:21:42;10.15;;;3.35;;
45848;SDS011;31567;54.600;9.842;2024-02-21T02:25:26;5.70;;;3.03;;
45848;SDS011;31567;54.600;9.842;2024-02-21T02:29:06;5.35;;;2.45;;
45848;SDS011;31567;54.600;9.842;2024-02-21T02:32:45;5.25;;;2.60;;
45848;SDS011;31567;54.600;9.842;2024-02-21T02:36:25;6.80;;;2.60;;
45848;SDS011;31567;54.600;9.842;2024-02-21T02:40:07;4.65;;;2.55;;
45848;SDS011;31567;54.600;9.842;2024-02-21T02:43:47;8.05;;;3.50;;
45848;SDS011;31567;54.600;9.842;2024-02-21T02:47:27;8.23;;;3.83;;
45848;SDS011;31567;54.600;9.842;2024-02-21T02:51:06;10.75;;;4.70;;
45848;SDS011;31567;54.600;9.842;2024-02-21T02:54:46;13.25;;;4.05;;
45848;SDS011;31567;54.600;9.842;2024-02-21T02:58:30;24.38;;;6.22;;
45848;SDS011;31567;54.600;9.842;2024-02-21T03:02:10;12.20;;;4.93;;
45848;SDS011;31567;54.600;9.842;2024-02-21T03:05:49;10.75;;;4.25;;
45848;SDS011;31567;54.600;9.842;2024-02-21T03:09:29;8.88;;;3.03;;
45848;SDS011;31567;54.600;9.842;2024-02-21T03:13:08;8.95;;;2.00;;
45848;SDS011;31567;54.600;9.842;2024-02-21T03:16:48;6.90;;;2.33;;
45848;SDS011;31567;54.600;9.842;2024-02-21T03:20:30;9.40;;;1.83;;
45848;SDS011;31567;54.600;9.842;2024-02-21T03:24:10;9.13;;;2.20;;
45848;SDS011;31567;54.600;9.842;2024-02-21T03:27:49;7.28;;;2.65;;
45848;SDS011;31567;54.600;9.842;2024-02-21T03:31:29;8.98;;;2.95;;
45848;SDS011;31567;54.600;9.842;2024-02-21T03:35:08;13.43;;;3.30;;
45848;SDS011;31567;54.600;9.842;2024-02-21T03:38:48;16.83;;;3.78;;
45848;SDS011;31567;54.600;9.842;2024-02-21T03:42:28;15.07;;;2.85;;
45848;SDS011;31567;54.600;9.842;2024-02-21T03:46:08;18.42;;;3.60;;
45848;SDS011;31567;54.600;9.842;2024-02-21T03:49:49;21.05;;;4.22;;
45848;SDS011;31567;54.600;9.842;2024-02-21T03:53:28;15.27;;;3.00;;
45848;SDS011;31567;54.600;9.842;2024-02-21T03:57:08;21.80;;;3.72;;
45848;SDS011;31567;54.600;9.842;2024-02-21T04:00:48;15.35;;;3.55;;
45848;SDS011;31567;54.600;9.842;2024-02-21T04:04:27;17.98;;;3.85;;
45848;SDS011;31567;54.600;9.842;2024-02-21T04:08:07;18.13;;;3.47;;
45848;SDS011;31567;54.600;9.842;2024-02-21T04:11:47;25.52;;;3.80;;
45848;SDS011;31567;54.600;9.842;2024-02-21T04:15:26;24.00;;;3.90;;
45848;SDS011;31567;54.600;9.842;2024-02-21T04:19:06;19.95;;;3.78;;
45848;SDS011;31567;54.600;9.842;2024-02-21T04:22:46;18.75;;;3.50;;
45848;SDS011;31567;54.600;9.842;2024-02-21T04:26:25;20.77;;;3.65;;
45848;SDS011;31567;54.600;9.842;2024-02-21T04:30:05;24.92;;;4.93;;
45848;SDS011;31567;54.600;9.842;2024-02-21T04:33:45;17.50;;;3.17;;
45848;SDS011;31567;54.600;9.842;2024-02-21T04:37:25;30.80;;;4.00;;
45848;SDS011;31567;54.600;9.842;2024-02-21T04:41:05;17.90;;;3.25;;
45848;SDS011;31567;54.600;9.842;2024-02-21T04:44:44;27.02;;;4.00;;
45848;SDS011;31567;54.600;9.842;2024-02-21T04:48:24;18.95;;;4.05;;
45848;SDS011;31567;54.600;9.842;2024-02-21T04:52:03;28.05;;;4.60;;
45848;SDS011;31567;54.600;9.842;2024-02-21T04:55:43;22.55;;;3.95;;
45848;SDS011;31567;54.600;9.842;2024-02-21T04:59:23;23.58;;;4.35;;
45848;SDS011;31567;54.600;9.842;2024-02-21T05:03:02;19.35;;;3.67;;
45848;SDS011;31567;54.600;9.842;2024-02-21T05:06:42;23.90;;;4.38;;
45848;SDS011;31567;54.600;9.842;2024-02-21T05:10:22;19.52;;;4.20;;
45848;SDS011;31567;54.600;9.842;2024-02-21T05:14:01;26.55;;;5.28;;
45848;SDS011;31567;54.600;9.842;2024-02-21T05:17:42;22.33;;;3.78;;
45848;SDS011;31567;54.600;9.842;2024-02-21T05:21:25;17.33;;;3.15;;
45848;SDS011;31567;54.600;9.842;2024-02-21T05:25:06;31.17;;;4.78;;
45848;SDS011;31567;54.600;9.842;2024-02-21T05:28:46;22.60;;;3.58;;
45848;SDS011;31567;54.600;9.842;2024-02-21T05:32:25;23.00;;;3.67;;
45848;SDS011;31567;54.600;9.842;2024-02-21T05:36:05;26.75;;;4.97;;
45848;SDS011;31567;54.600;9.842;2024-02-21T05:39:45;19.75;;;3.50;;
45848;SDS011;31567;54.600;9.842;2024-02-21T05:43:25;22.30;;;3.78;;
45848;SDS011;31567;54.600;9.842;2024-02-21T05:47:05;25.40;;;4.35;;
45848;SDS011;31567;54.600;9.842;2024-02-21T05:50:48;32.05;;;6.57;;
45848;SDS011;31567;54.600;9.842;2024-02-21T05:54:28;27.55;;;4.65;;
45848;SDS011;31567;54.600;9.842;2024-02-21T05:58:08;24.75;;;4.28;;
45848;SDS011;31567;54.600;9.842;2024-02-21T06:01:56;23.27;;;4.55;;
45848;SDS011;31567;54.600;9.842;2024-02-21T06:05:37;27.55;;;4.50;;
45848;SDS011;31567;54.600;9.842;2024-02-21T06:09:17;23.85;;;4.57;;
45848;SDS011;31567;54.600;9.842;2024-02-21T06:12:57;23.23;;;4.22;;
45848;SDS011;31567;54.600;9.842;2024-02-21T06:16:36;27.42;;;4.35;;
45848;SDS011;31567;54.600;9.842;2024-02-21T06:20:16;24.45;;;3.80;;
45848;SDS011;31567;54.600;9.842;2024-02-21T06:23:56;22.20;;;3.90;;
45848;SDS011;31567;54.600;9.842;2024-02-21T06:27:35;23.85;;;4.18;;
45848;SDS011;31567;54.600;9.842;2024-02-21T06:31:15;18.85;;;4.80;;
45848;SDS011;31567;54.600;9.842;2024-02-21T06:34:55;30.27;;;3.90;;
45848;SDS011;31567;54.600;9.842;2024-02-21T06:38:34;21.10;;;3.67;;
45848;SDS011;31567;54.600;9.842;2024-02-21T06:42:14;25.42;;;4.60;;
45848;SDS011;31567;54.600;9.842;2024-02-21T06:45:53;18.20;;;3.63;;
45848;SDS011;31567;54.600;9.842;2024-02-21T06:49:34;19.52;;;4.18;;
45848;SDS011;31567;54.600;9.842;2024-02-21T06:53:13;22.50;;;3.67;;
45848;SDS011;31567;54.600;9.842;2024-02-21T06:56:53;26.35;;;4.57;;
45848;SDS011;31567;54.600;9.842;2024-02-21T07:00:32;22.55;;;4.28;;
45848;SDS011;31567;54.600;9.842;2024-02-21T07:04:12;24.15;;;5.57;;
45848;SDS011;31567;54.600;9.842;2024-02-21T07:07:51;34.45;;;4.40;;
45848;SDS011;31567;54.600;9.842;2024-02-21T07:11:31;22.52;;;3.70;;
45848;SDS011;31567;54.600;9.842;2024-02-21T07:15:10;27.38;;;4.13;;
45848;SDS011;31567;54.600;9.842;2024-02-21T07:18:50;26.38;;;3.95;;
45848;SDS011;31567;54.600;9.842;2024-02-21T07:22:29;18.73;;;3.30;;
45848;SDS011;31567;54.600;9.842;2024-02-21T07:26:09;26.08;;;4.65;;
45848;SDS011;31567;54.600;9.842;2024-02-21T07:29:49;27.38;;;4.63;;
45848;SDS011;31567;54.600;9.842;2024-02-21T07:33:29;27.08;;;4.93;;
45848;SDS011;31567;54.600;9.842;2024-02-21T07:37:09;29.75;;;5.03;;
45848;SDS011;31567;54.600;9.842;2024-02-21T07:40:49;30.40;;;5.70;;
45848;SDS011;31567;54.600;9.842;2024-02-21T07:44:28;33.78;;;4.32;;
45848;SDS011;31567;54.600;9.842;2024-02-21T07:48:08;27.60;;;4.75;;
45848;SDS011;31567;54.600;9.842;2024-02-21T07:51:48;25.98;;;4.13;;
45848;SDS011;31567;54.600;9.842;2024-02-21T07:55:27;24.88;;;4.95;;
45848;SDS011;31567;54.600;9.842;2024-02-21T07:59:07;34.55;;;4.85;;
45848;SDS011;31567;54.600;9.842;2024-02-21T08:02:47;24.85;;;4.70;;
45848;SDS011;31567;54.600;9.842;2024-02-21T08:06:28;26.33;;;4.05;;
45848;SDS011;31567;54.600;9.842;2024-02-21T08:10:07;24.23;;;4.07;;
45848;SDS011;31567;54.600;9.842;2024-02-21T08:13:47;20.75;;;4.00;;
45848;SDS011;31567;54.600;9.842;2024-02-21T08:17:27;26.08;;;4.25;;
45848;SDS011;31567;54.600;9.842;2024-02-21T08:21:06;25.15;;;4.10;;
45848;SDS011;31567;54.600;9.842;2024-02-21T08:24:46;30.05;;;4.82;;
45848;SDS011;31567;54.600;9.842;2024-02-21T08:28:25;26.83;;;4.30;;
45848;SDS011;31567;54.600;9.842;2024-02-21T08:32:05;23.10;;;3.75;;
45848;SDS011;31567;54.600;9.842;2024-02-21T08:35:44;19.23;;;4.53;;
45848;SDS011;31567;54.600;9.842;2024-02-21T08:39:24;21.17;;;3.75;;
45848;SDS011;31567;54.600;9.842;2024-02-21T08:43:03;21.33;;;3.95;;
45848;SDS011;31567;54.600;9.842;2024-02-21T08:46:43;28.95;;;3.97;;
45848;SDS011;31567;54.600;9.842;2024-02-21T08:50:22;18.88;;;3.10;;
45848;SDS011;31567;54.600;9.842;2024-02-21T08:54:02;23.20;;;3.88;;
45848;SDS011;31567;54.600;9.842;2024-02-21T08:57:42;27.45;;;5.43;;
45848;SDS011;31567;54.600;9.842;2024-02-21T09:01:21;25.77;;;3.75;;
45848;SDS011;31567;54.600;9.842;2024-02-21T09:05:01;26.52;;;4.35;;
45848;SDS011;31567;54.600;9.842;2024-02-21T09:08:40;27.52;;;4.85;;
45848;SDS011;31567;54.600;9.842;2024-02-21T09:12:20;28.42;;;4.65;;
45848;SDS011;31567;54.600;9.842;2024-02-21T09:15:59;21.20;;;3.50;;
45848;SDS011;31567;54.600;9.842;2024-02-21T09:19:39;25.23;;;4.60;;
45848;SDS011;31567;54.600;9.842;2024-02-21T09:23:18;16.15;;;3.58;;
45848;SDS011;31567;54.600;9.842;2024-02-21T09:26:58;15.82;;;3.20;;
45848;SDS011;31567;54.600;9.842;2024-02-21T09:30:39;21.95;;;3.80;;
45848;SDS011;31567;54.600;9.842;2024-02-21T09:34:18;30.10;;;4.97;;
45848;SDS011;31567;54.600;9.842;2024-02-21T09:37:58;28.80;;;4.50;;
45848;SDS011;31567;54.600;9.842;2024-02-21T09:41:37;21.13;;;4.40;;
45848;SDS011;31567;54.600;9.842;2024-02-21T09:45:24;17.45;;;3.13;;
45848;SDS011;31567;54.600;9.842;2024-02-21T09:49:11;19.70;;;5.10;;
45848;SDS011;31567;54.600;9.842;2024-02-21T09:52:53;21.63;;;4.18;;
45848;SDS011;31567;54.600;9.842;2024-02-21T09:56:33;18.95;;;3.05;;
45848;SDS011;31567;54.600;9.842;2024-02-21T10:00:13;19.63;;;2.60;;
45848;SDS011;31567;54.600;9.842;2024-02-21T10:04:00;25.77;;;5.05;;
45848;SDS011;31567;54.600;9.842;2024-02-21T10:07:41;22.00;;;3.45;;
45848;SDS011;31567;54.600;9.842;2024-02-21T10:11:24;21.88;;;4.00;;
45848;SDS011;31567;54.600;9.842;2024-02-21T10:15:05;18.52;;;3.95;;
45848;SDS011;31567;54.600;9.842;2024-02-21T10:18:45;21.45;;;3.13;;
45848;SDS011;31567;54.600;9.842;2024-02-21T10:22:25;19.73;;;3.40;;
45848;SDS011;31567;54.600;9.842;2024-02-21T10:26:07;18.17;;;3.97;;
45848;SDS011;31567;54.600;9.842;2024-02-21T10:29:48;19.45;;;3.70;;
45848;SDS011;31567;54.600;9.842;2024-02-21T10:33:29;13.30;;;2.85;;
45848;SDS011;31567;54.600;9.842;2024-02-21T10:37:11;18.33;;;3.40;;
45848;SDS011;31567;54.600;9.842;2024-02-21T10:40:51;18.02;;;3.25;;
45848;SDS011;31567;54.600;9.842;2024-02-21T10:44:33;13.23;;;2.80;;
45848;SDS011;31567;54.600;9.842;2024-02-21T10:48:15;14.40;;;2.40;;
45848;SDS011;31567;54.600;9.842;2024-02-21T10:52:13;12.73;;;2.58;;
45848;SDS011;31567;54.600;9.842;2024-02-21T10:55:58;15.48;;;2.28;;
45848;SDS011;31567;54.600;9.842;2024-02-21T10:59:45;14.98;;;2.92;;
45848;SDS011;31567;54.600;9.842;2024-02-21T11:03:27;17.95;;;2.95;;
45848;SDS011;31567;54.600;9.842;2024-02-21T11:07:07;16.25;;;3.20;;
45848;SDS011;31567;54.600;9.842;2024-02-21T11:10:47;13.45;;;2.90;;
45848;SDS011;31567;54.600;9.842;2024-02-21T11:14:27;13.75;;;3.22;;
45848;SDS011;31567;54.600;9.842;2024-02-21T11:18:07;12.60;;;2.45;;
45848;SDS011;31567;54.600;9.842;2024-02-21T11:21:47;13.40;;;2.72;;
45848;SDS011;31567;54.600;9.842;2024-02-21T11:25:29;9.82;;;2.53;;
45848;SDS011;31567;54.600;9.842;2024-02-21T11:29:12;10.93;;;2.30;;
45848;SDS011;31567;54.600;9.842;2024-02-21T11:33:03;14.30;;;2.58;;
45848;SDS011;31567;54.600;9.842;2024-02-21T11:36:49;13.48;;;3.72;;
45848;SDS011;31567;54.600;9.842;2024-02-21T11:40:29;13.07;;;2.85;;
45848;SDS011;31567;54.600;9.842;2024-02-21T11:44:09;9.23;;;2.80;;
45848;SDS011;31567;54.600;9.842;2024-02-21T11:47:48;13.10;;;2.20;;
45848;SDS011;31567;54.600;9.842;2024-02-21T11:51:28;14.52;;;2.60;;
45848;SDS011;31567;54.600;9.842;2024-02-21T11:55:08;12.63;;;2.20;;
45848;SDS011;31567;54.600;9.842;2024-02-21T11:58:47;10.23;;;2.53;;
45848;SDS011;31567;54.600;9.842;2024-02-21T12:02:27;11.55;;;2.40;;
45848;SDS011;31567;54.600;9.842;2024-02-21T12:06:07;15.48;;;3.15;;
45848;SDS011;31567;54.600;9.842;2024-02-21T12:09:47;12.30;;;2.72;;
45848;SDS011;31567;54.600;9.842;2024-02-21T12:13:26;14.90;;;3.33;;
45848;SDS011;31567;54.600;9.842;2024-02-21T12:17:06;9.27;;;2.85;;
45848;SDS011;31567;54.600;9.842;2024-02-21T12:20:47;17.00;;;3.47;;
45848;SDS011;31567;54.600;9.842;2024-02-21T12:24:28;14.60;;;4.32;;
45848;SDS011;31567;54.600;9.842;2024-02-21T12:28:08;15.85;;;4.90;;
45848;SDS011;31567;54.600;9.842;2024-02-21T12:31:47;10.00;;;4.45;;
45848;SDS011;31567;54.600;9.842;2024-02-21T12:35:27;15.10;;;5.35;;
45848;SDS011;31567;54.600;9.842;2024-02-21T12:39:07;18.38;;;4.80;;
45848;SDS011;31567;54.600;9.842;2024-02-21T12:42:47;15.52;;;5.25;;
45848;SDS011;31567;54.600;9.842;2024-02-21T12:46:27;14.73;;;5.28;;
45848;SDS011;31567;54.600;9.842;2024-02-21T12:50:06;15.60;;;6.47;;
45848;SDS011;31567;54.600;9.842;2024-02-21T12:53:49;15.95;;;5.60;;
45848;SDS011;31567;54.600;9.842;2024-02-21T12:57:28;21.45;;;6.85;;
45848;SDS011;31567;54.600;9.842;2024-02-21T13:01:08;16.13;;;5.90;;
45848;SDS011;31567;54.600;9.842;2024-02-21T13:04:48;19.13;;;6.97;;
45848;SDS011;31567;54.600;9.842;2024-02-21T13:08:27;14.27;;;6.13;;
45848;SDS011;31567;54.600;9.842;2024-02-21T13:12:07;22.30;;;7.07;;
45848;SDS011;31567;54.600;9.842;2024-02-21T13:15:47;13.30;;;5.95;;
45848;SDS011;31567;54.600;9.842;2024-02-21T13:19:26;15.02;;;5.55;;
45848;SDS011;31567;54.600;9.842;2024-02-21T13:23:06;17.58;;;6.20;;
45848;SDS011;31567;54.600;9.842;2024-02-21T13:26:45;13.68;;;5.22;;
45848;SDS011;31567;54.600;9.842;2024-02-21T13:30:25;9.68;;;5.50;;
45848;SDS011;31567;54.600;9.842;2024-02-21T13:34:04;8.85;;;4.70;;
45848;SDS011;31567;54.600;9.842;2024-02-21T13:37:44;13.20;;;5.20;;
45848;SDS011;31567;54.600;9.842;2024-02-21T13:41:24;8.48;;;3.80;;
45848;SDS011;31567;54.600;9.842;2024-02-21T13:45:03;5.35;;;3.95;;
45848;SDS011;31567;54.600;9.842;2024-02-21T13:48:47;6.28;;;3.20;;
45848;SDS011;31567;54.600;9.842;2024-02-21T13:52:26;4.72;;;3.90;;
45848;SDS011;31567;54.600;9.842;2024-02-21T13:56:06;6.60;;;4.57;;
45848;SDS011;31567;54.600;9.842;2024-02-21T13:59:48;8.32;;;5.28;;
45848;SDS011;31567;54.600;9.842;2024-02-21T14:03:27;8.10;;;5.47;;
45848;SDS011;31567;54.600;9.842;2024-02-21T14:07:07;7.53;;;5.63;;
45848;SDS011;31567;54.600;9.842;2024-02-21T14:10:47;9.85;;;5.85;;
45848;SDS011;31567;54.600;9.842;2024-02-21T14:14:27;14.27;;;6.53;;
45848;SDS011;31567;54.600;9.842;2024-02-21T14:18:06;12.60;;;7.18;;
45848;SDS011;31567;54.600;9.842;2024-02-21T14:21:48;11.73;;;6.35;;
45848;SDS011;31567;54.600;9.842;2024-02-21T14:25:27;11.98;;;6.70;;
45848;SDS011;31567;54.600;9.842;2024-02-21T14:29:07;11.50;;;6.65;;
45848;SDS011;31567;54.600;9.842;2024-02-21T14:32:46;15.10;;;7.05;;
45848;SDS011;31567;54.600;9.842;2024-02-21T14:36:26;9.77;;;7.40;;
45848;SDS011;31567;54.600;9.842;2024-02-21T14:40:06;14.70;;;8.07;;
45848;SDS011;31567;54.600;9.842;2024-02-21T14:43:46;14.43;;;9.88;;
45848;SDS011;31567;54.600;9.842;2024-02-21T14:47:25;16.33;;;10.18;;
45848;SDS011;31567;54.600;9.842;2024-02-21T14:51:05;16.80;;;10.55;;
45848;SDS011;31567;54.600;9.842;2024-02-21T14:54:44;15.18;;;10.63;;
45848;SDS011;31567;54.600;9.842;2024-02-21T14:58:27;14.43;;;10.38;;
45848;SDS011;31567;54.600;9.842;2024-02-21T15:02:07;14.05;;;10.75;;
45848;SDS011;31567;54.600;9.842;2024-02-21T15:05:48;16.13;;;11.30;;
45848;SDS011;31567;54.600;9.842;2024-02-21T15:09:27;16.08;;;11.18;;
45848;SDS011;31567;54.600;9.842;2024-02-21T15:13:07;16.88;;;10.70;;
45848;SDS011;31567;54.600;9.842;2024-02-21T15:16:47;18.48;;;12.38;;
45848;SDS011;31567;54.600;9.842;2024-02-21T15:20:26;17.38;;;12.32;;
45848;SDS011;31567;54.600;9.842;2024-02-21T15:24:07;19.08;;;13.10;;
45848;SDS011;31567;54.600;9.842;2024-02-21T15:27:46;20.13;;;12.00;;
45848;SDS011;31567;54.600;9.842;2024-02-21T15:31:26;18.77;;;11.48;;
45848;SDS011;31567;54.600;9.842;2024-02-21T15:35:05;23.63;;;12.57;;
45848;SDS011;31567;54.600;9.842;2024-02-21T15:38:45;20.20;;;12.90;;
45848;SDS011;31567;54.600;9.842;2024-02-21T15:42:25;18.17;;;12.70;;
45848;SDS011;31567;54.600;9.842;2024-02-21T15:46:05;18.83;;;11.73;;
45848;SDS011;31567;54.600;9.842;2024-02-21T15:49:44;19.60;;;12.35;;
45848;SDS011;31567;54.600;9.842;2024-02-21T15:53:24;19.50;;;12.23;;
45848;SDS011;31567;54.600;9.842;2024-02-21T15:57:03;18.45;;;13.30;;
45848;SDS011;31567;54.600;9.842;2024-02-21T16:00:45;17.40;;;12.40;;
45848;SDS011;31567;54.600;9.842;2024-02-21T16:04:24;19.88;;;12.95;;
45848;SDS011;31567;54.600;9.842;2024-02-21T16:08:04;17.77;;;12.13;;
45848;SDS011;31567;54.600;9.842;2024-02-21T16:11:43;19.58;;;13.07;;
45848;SDS011;31567;54.600;9.842;2024-02-21T16:15:23;22.20;;;12.23;;
45848;SDS011;31567;54.600;9.842;2024-02-21T16:19:03;17.83;;;12.82;;
45848;SDS011;31567;54.600;9.842;2024-02-21T16:22:44;19.67;;;12.70;;
45848;SDS011;31567;54.600;9.842;2024-02-21T16:26:24;21.60;;;14.48;;
45848;SDS011;31567;54.600;9.842;2024-02-21T16:30:03;18.65;;;14.90;;
45848;SDS011;31567;54.600;9.842;2024-02-21T16:33:44;21.35;;;15.32;;
45848;SDS011;31567;54.600;9.842;2024-02-21T16:37:24;24.35;;;16.23;;
45848;SDS011;31567;54.600;9.842;2024-02-21T16:41:03;25.27;;;16.02;;
45848;SDS011;31567;54.600;9.842;2024-02-21T16:44:43;26.35;;;15.55;;
45848;SDS011;31567;54.600;9.842;2024-02-21T16:48:22;21.02;;;15.45;;
45848;SDS011;31567;54.600;9.842;2024-02-21T16:52:02;24.13;;;15.27;;
45848;SDS011;31567;54.600;9.842;2024-02-21T16:55:43;19.40;;;15.45;;
45848;SDS011;31567;54.600;9.842;2024-02-21T16:59:22;20.98;;;15.23;;
45848;SDS011;31567;54.600;9.842;2024-02-21T17:03:02;23.38;;;15.82;;
45848;SDS011;31567;54.600;9.842;2024-02-21T17:06:41;21.70;;;14.40;;
45848;SDS011;31567;54.600;9.842;2024-02-21T17:10:21;24.77;;;16.17;;
45848;SDS011;31567;54.600;9.842;2024-02-21T17:14:01;20.95;;;14.90;;
45848;SDS011;31567;54.600;9.842;2024-02-21T17:17:42;26.98;;;17.30;;
45848;SDS011;31567;54.600;9.842;2024-02-21T17:21:21;24.25;;;15.98;;
45848;SDS011;31567;54.600;9.842;2024-02-21T17:25:01;23.92;;;15.82;;
45848;SDS011;31567;54.600;9.842;2024-02-21T17:28:42;22.65;;;15.48;;
45848;SDS011;31567;54.600;9.842;2024-02-21T17:32:21;23.55;;;14.85;;
45848;SDS011;31567;54.600;9.842;2024-02-21T17:36:01;22.95;;;16.08;;
45848;SDS011;31567;54.600;9.842;2024-02-21T17:39:41;21.80;;;15.68;;
45848;SDS011;31567;54.600;9.842;2024-02-21T17:43:20;23.65;;;14.75;;
45848;SDS011;31567;54.600;9.842;2024-02-21T17:47:00;21.00;;;15.80;;
45848;SDS011;31567;54.600;9.842;2024-02-21T17:50:39;21.52;;;15.73;;
45848;SDS011;31567;54.600;9.842;2024-02-21T17:54:19;20.92;;;13.82;;
45848;SDS011;31567;54.600;9.842;2024-02-21T17:57:58;21.13;;;14.20;;
45848;SDS011;31567;54.600;9.842;2024-02-21T18:01:38;22.85;;;14.18;;
45848;SDS011;31567;54.600;9.842;2024-02-21T18:05:17;19.58;;;14.90;;
45848;SDS011;31567;54.600;9.842;2024-02-21T18:08:57;18.70;;;13.20;;
45848;SDS011;31567;54.600;9.842;2024-02-21T18:12:37;17.02;;;13.68;;
45848;SDS011;31567;54.600;9.842;2024-02-21T18:16:17;18.80;;;13.82;;
45848;SDS011;31567;54.600;9.842;2024-02-21T18:19:56;20.38;;;14.10;;
45848;SDS011;31567;54.600;9.842;2024-02-21T18:23:37;18.77;;;12.80;;
45848;SDS011;31567;54.600;9.842;2024-02-21T18:27:18;17.08;;;13.00;;
45848;SDS011;31567;54.600;9.842;2024-02-21T18:30:58;27.63;;;14.35;;
45848;SDS011;31567;54.600;9.842;2024-02-21T18:34:37;17.98;;;11.85;;
45848;SDS011;31567;54.600;9.842;2024-02-21T18:38:17;14.43;;;11.63;;
45848;SDS011;31567;54.600;9.842;2024-02-21T18:41:57;19.92;;;12.82;;
45848;SDS011;31567;54.600;9.842;2024-02-21T18:45:36;18.10;;;12.65;;
45848;SDS011;31567;54.600;9.842;2024-02-21T18:49:16;18.75;;;12.45;;
45848;SDS011;31567;54.600;9.842;2024-02-21T18:52:56;17.27;;;10.82;;
45848;SDS011;31567;54.600;9.842;2024-02-21T18:56:38;13.57;;;10.70;;
45848;SDS011;31567;54.600;9.842;2024-02-21T19:00:19;13.48;;;11.23;;
45848;SDS011;31567;54.600;9.842;2024-02-21T19:04:02;14.52;;;10.40;;
45848;SDS011;31567;54.600;9.842;2024-02-21T19:07:41;15.57;;;11.05;;
45848;SDS011;31567;54.600;9.842;2024-02-21T19:11:21;13.77;;;11.30;;
45848;SDS011;31567;54.600;9.842;2024-02-21T19:15:00;15.05;;;10.77;;
45848;SDS011;31567;54.600;9.842;2024-02-21T19:18:40;15.13;;;10.30;;
45848;SDS011;31567;54.600;9.842;2024-02-21T19:22:21;16.35;;;11.63;;
45848;SDS011;31567;54.600;9.842;2024-02-21T19:26:04;14.45;;;11.15;;
45848;SDS011;31567;54.600;9.842;2024-02-21T19:29:47;12.88;;;10.52;;
45848;SDS011;31567;54.600;9.842;2024-02-21T19:33:26;15.18;;;11.15;;
45848;SDS011;31567;54.600;9.842;2024-02-21T19:37:06;14.65;;;10.63;;
45848;SDS011;31567;54.600;9.842;2024-02-21T19:40:45;13.60;;;10.35;;
45848;SDS011;31567;54.600;9.842;2024-02-21T19:44:25;12.95;;;10.50;;
45848;SDS011;31567;54.600;9.842;2024-02-21T19:48:04;15.57;;;9.73;;
45848;SDS011;31567;54.600;9.842;2024-02-21T19:51:46;16.80;;;10.13;;
45848;SDS011;31567;54.600;9.842;2024-02-21T19:55:26;12.70;;;9.93;;
45848;SDS011;31567;54.600;9.842;2024-02-21T19:59:08;13.60;;;9.93;;
45848;SDS011;31567;54.600;9.842;2024-02-21T20:02:48;16.35;;;10.02;;
45848;SDS011;31567;54.600;9.842;2024-02-21T20:06:30;13.25;;;9.30;;
45848;SDS011;31567;54.600;9.842;2024-02-21T20:10:10;12.48;;;9.52;;
45848;SDS011;31567;54.600;9.842;2024-02-21T20:13:50;18.63;;;9.55;;
45848;SDS011;31567;54.600;9.842;2024-02-21T20:17:30;12.32;;;9.82;;
45848;SDS011;31567;54.600;9.842;2024-02-21T20:21:10;14.18;;;8.80;;
45848;SDS011;31567;54.600;9.842;2024-02-21T20:24:50;14.27;;;8.10;;
45848;SDS011;31567;54.600;9.842;2024-02-21T20:28:29;15.25;;;8.98;;
45848;SDS011;31567;54.600;9.842;2024-02-21T20:32:10;12.52;;;8.88;;
45848;SDS011;31567;54.600;9.842;2024-02-21T20:35:49;13.02;;;8.65;;
45848;SDS011;31567;54.600;9.842;2024-02-21T20:39:29;12.63;;;7.75;;
45848;SDS011;31567;54.600;9.842;2024-02-21T20:43:09;15.10;;;7.75;;
45848;SDS011;31567;54.600;9.842;2024-02-21T20:46:49;17.95;;;8.63;;
45848;SDS011;31567;54.600;9.842;2024-02-21T20:50:28;12.40;;;7.85;;
45848;SDS011;31567;54.600;9.842;2024-02-21T20:54:08;10.75;;;8.07;;
45848;SDS011;31567;54.600;9.842;2024-02-21T20:57:47;10.75;;;7.60;;
45848;SDS011;31567;54.600;9.842;2024-02-21T21:01:27;13.55;;;7.57;;
45848;SDS011;31567;54.600;9.842;2024-02-21T21:05:06;12.43;;;7.25;;
45848;SDS011;31567;54.600;9.842;2024-02-21T21:08:47;14.80;;;7.55;;
45848;SDS011;31567;54.600;9.842;2024-02-21T21:12:26;10.95;;;6.93;;
45848;SDS011;31567;54.600;9.842;2024-02-21T21:16:06;10.27;;;6.50;;
45848;SDS011;31567;54.600;9.842;2024-02-21T21:19:45;13.82;;;7.13;;
45848;SDS011;31567;54.600;9.842;2024-02-21T21:23:25;12.30;;;7.43;;
45848;SDS011;31567;54.600;9.842;2024-02-21T21:27:05;11.10;;;7.47;;
45848;SDS011;31567;54.600;9.842;2024-02-21T21:30:45;12.00;;;7.30;;
45848;SDS011;31567;54.600;9.842;2024-02-21T21:34:25;13.82;;;7.03;;
45848;SDS011;31567;54.600;9.842;2024-02-21T21:38:06;9.40;;;6.85;;
45848;SDS011;31567;54.600;9.842;2024-02-21T21:41:45;15.73;;;7.63;;
45848;SDS011;31567;54.600;9.842;2024-02-21T21:45:25;13.57;;;7.43;;